createdAt,value
2023-08-31T00:00:14.793Z,15.50
2023-08-31T00:02:42.354Z,15.10
2023-08-31T00:05:10.097Z,15.50
2023-08-31T00:07:37.362Z,15.20
2023-08-31T00:10:10.831Z,15.10
2023-08-31T00:12:40.841Z,15.10
2023-08-31T00:15:13.434Z,15.30
2023-08-31T00:17:40.535Z,15.40
2023-08-31T00:20:09.931Z,15.30
2023-08-31T00:22:37.501Z,15.40
2023-08-31T00:25:20.440Z,15.50
2023-08-31T00:27:49.858Z,15.50
2023-08-31T00:30:17.401Z,15.50
2023-08-31T00:32:44.824Z,15.50
2023-08-31T00:35:15.112Z,15.50
2023-08-31T00:37:42.615Z,15.50
2023-08-31T00:40:10.674Z,15.50
2023-08-31T00:42:38.870Z,15.60
2023-08-31T00:45:07.473Z,15.30
2023-08-31T00:47:35.054Z,15.40
2023-08-31T00:50:02.454Z,15.40
2023-08-31T00:52:30.341Z,15.50
2023-08-31T00:54:58.361Z,15.20
2023-08-31T00:57:27.634Z,15.40
2023-08-31T00:59:56.606Z,15.40
2023-08-31T01:02:50.387Z,15.20
2023-08-31T01:05:39.869Z,15.30
2023-08-31T01:08:24.580Z,15.30
2023-08-31T01:11:19.078Z,15.40
2023-08-31T01:14:25.816Z,15.30
2023-08-31T01:16:55.232Z,15.20
2023-08-31T01:19:49.964Z,15.30
2023-08-31T01:22:44.896Z,15.10
2023-08-31T01:25:13.518Z,15.20
2023-08-31T01:27:41.843Z,15.30
2023-08-31T01:30:10.233Z,15.40
2023-08-31T01:32:38.218Z,15.00
2023-08-31T01:35:07.409Z,15.20
2023-08-31T01:38:00.591Z,15.20
2023-08-31T01:40:45.943Z,15.40
2023-08-31T01:43:35.087Z,15.00
2023-08-31T01:46:02.550Z,15.30
2023-08-31T01:48:32.253Z,15.20
2023-08-31T01:51:20.704Z,15.20
2023-08-31T01:53:48.142Z,15.00
2023-08-31T01:56:18.395Z,15.10
2023-08-31T01:58:45.639Z,14.70
2023-08-31T02:01:16.324Z,14.80
2023-08-31T02:03:46.589Z,15.10
2023-08-31T02:06:13.715Z,15.10
2023-08-31T02:08:44.318Z,14.90
2023-08-31T02:11:11.382Z,14.90
2023-08-31T02:13:38.942Z,15.10
2023-08-31T02:16:06.030Z,15.00
2023-08-31T02:18:33.328Z,15.00
2023-08-31T02:21:03.874Z,15.20
2023-08-31T02:23:31.212Z,15.10
2023-08-31T02:25:58.273Z,15.20
2023-08-31T02:28:25.553Z,15.30
2023-08-31T02:31:00.842Z,15.00
2023-08-31T02:33:28.014Z,14.90
2023-08-31T02:35:59.185Z,15.20
2023-08-31T02:38:40.845Z,15.30
2023-08-31T02:41:10.570Z,15.20
2023-08-31T02:43:37.855Z,15.00
2023-08-31T02:46:06.925Z,15.30
2023-08-31T02:48:50.566Z,15.40
2023-08-31T02:51:18.186Z,15.20
2023-08-31T02:53:45.744Z,15.10
2023-08-31T02:56:13.230Z,15.40
2023-08-31T02:58:40.932Z,15.10
2023-08-31T03:01:12.931Z,15.30
2023-08-31T03:03:52.849Z,15.10
2023-08-31T03:06:20.151Z,14.90
2023-08-31T03:08:49.736Z,15.20
2023-08-31T03:11:17.328Z,15.20
2023-08-31T03:13:44.489Z,15.20
2023-08-31T03:16:11.995Z,15.30
2023-08-31T03:18:39.524Z,14.90
2023-08-31T03:21:06.898Z,15.10
2023-08-31T03:23:33.971Z,15.30
2023-08-31T03:26:01.573Z,15.00
2023-08-31T03:28:28.775Z,15.10
2023-08-31T03:31:10.163Z,15.10
2023-08-31T03:33:41.784Z,15.10
2023-08-31T03:36:08.865Z,15.00
2023-08-31T03:38:39.548Z,15.10
2023-08-31T03:41:20.546Z,15.10
2023-08-31T03:43:47.965Z,14.80
2023-08-31T03:46:15.573Z,15.20
2023-08-31T03:48:42.785Z,15.20
2023-08-31T03:51:10.034Z,15.10
2023-08-31T03:53:56.398Z,15.00
2023-08-31T03:56:23.968Z,14.80
2023-08-31T03:58:54.668Z,14.90
2023-08-31T04:01:22.170Z,14.90
2023-08-31T04:03:51.020Z,15.10
2023-08-31T04:06:30.031Z,14.90
2023-08-31T04:08:57.488Z,14.80
2023-08-31T04:11:29.391Z,14.60
2023-08-31T04:13:56.524Z,14.60
2023-08-31T04:16:26.126Z,14.70
2023-08-31T04:22:02.173Z,14.30
2023-08-31T04:24:30.761Z,14.50
2023-08-31T04:26:58.246Z,14.40
2023-08-31T04:29:25.463Z,14.40
2023-08-31T04:32:01.097Z,14.40
2023-08-31T04:34:28.972Z,14.30
2023-08-31T04:36:56.181Z,14.50
2023-08-31T04:39:23.396Z,14.30
2023-08-31T04:41:50.562Z,14.40
2023-08-31T04:44:18.677Z,14.60
2023-08-31T04:46:47.525Z,14.10
2023-08-31T04:49:16.642Z,14.40
2023-08-31T04:51:46.365Z,14.10
2023-08-31T04:54:24.422Z,14.40
2023-08-31T04:56:54.691Z,14.50
2023-08-31T04:59:21.837Z,14.60
2023-08-31T05:01:49.182Z,14.30
2023-08-31T05:04:19.178Z,14.50
2023-08-31T05:06:46.554Z,14.30
2023-08-31T05:09:13.736Z,14.40
2023-08-31T05:11:42.500Z,14.50
2023-08-31T05:14:09.722Z,14.30
2023-08-31T05:16:37.676Z,14.70
2023-08-31T05:19:05.097Z,14.40
2023-08-31T05:21:39.788Z,14.80
2023-08-31T05:24:26.258Z,14.60
2023-08-31T05:26:53.420Z,14.80
2023-08-31T05:29:20.706Z,14.70
2023-08-31T05:31:50.341Z,14.80
2023-08-31T05:34:21.157Z,15.00
2023-08-31T05:36:54.487Z,14.80
2023-08-31T05:39:33.523Z,14.80
2023-08-31T05:42:03.766Z,15.00
2023-08-31T05:44:33.442Z,14.70
2023-08-31T05:47:00.828Z,15.00
2023-08-31T05:49:30.155Z,14.90
2023-08-31T05:51:57.536Z,15.00
2023-08-31T05:54:28.803Z,15.10
2023-08-31T05:56:58.716Z,15.30
2023-08-31T05:59:32.209Z,15.40
2023-08-31T06:01:59.689Z,15.50
2023-08-31T06:04:27.450Z,15.50
2023-08-31T06:06:57.266Z,15.50
2023-08-31T06:09:27.240Z,15.50
2023-08-31T06:11:56.782Z,15.50
2023-08-31T06:14:35.107Z,15.70
2023-08-31T06:17:02.425Z,15.60
2023-08-31T06:19:29.875Z,15.80
2023-08-31T06:21:57.412Z,15.70
2023-08-31T06:24:26.019Z,15.80
2023-08-31T06:26:53.346Z,16.00
2023-08-31T06:29:25.349Z,15.80
2023-08-31T06:31:52.858Z,16.10
2023-08-31T06:34:20.303Z,16.20
2023-08-31T06:36:47.337Z,16.20
2023-08-31T06:39:14.349Z,16.10
2023-08-31T06:41:41.373Z,16.00
2023-08-31T06:44:08.766Z,16.30
2023-08-31T06:46:39.304Z,16.30
2023-08-31T06:49:06.647Z,16.20
2023-08-31T06:51:35.109Z,16.30
2023-08-31T06:54:08.328Z,16.30
2023-08-31T06:56:36.800Z,16.40
2023-08-31T06:59:04.235Z,16.40
2023-08-31T07:01:35.170Z,16.30
2023-08-31T07:04:02.590Z,16.30
2023-08-31T07:06:30.281Z,16.20
2023-08-31T07:08:57.847Z,16.30
2023-08-31T07:11:27.558Z,16.40
2023-08-31T07:13:54.899Z,16.50
2023-08-31T07:16:22.932Z,16.40
2023-08-31T07:18:50.306Z,16.50
2023-08-31T07:21:24.347Z,16.30
2023-08-31T07:23:58.112Z,16.50
2023-08-31T07:26:27.109Z,16.70
2023-08-31T07:28:54.480Z,16.50
2023-08-31T07:31:21.786Z,16.80
2023-08-31T07:33:50.329Z,17.00
2023-08-31T07:36:17.946Z,16.80
2023-08-31T07:38:48.202Z,16.60
2023-08-31T07:41:15.520Z,16.90
2023-08-31T07:43:51.288Z,17.20
2023-08-31T07:46:26.431Z,17.20
2023-08-31T07:48:56.955Z,17.10
2023-08-31T07:51:32.873Z,17.30
2023-08-31T07:54:01.066Z,17.30
2023-08-31T07:56:28.393Z,17.60
2023-08-31T07:58:55.687Z,17.30
2023-08-31T08:01:23.333Z,17.80
2023-08-31T08:03:50.862Z,17.60
2023-08-31T08:06:18.602Z,17.70
2023-08-31T08:08:47.564Z,17.90
2023-08-31T08:11:14.996Z,18.10
2023-08-31T08:13:45.177Z,18.10
2023-08-31T08:16:12.431Z,18.20
2023-08-31T08:18:39.898Z,18.10
2023-08-31T08:21:07.253Z,18.30
2023-08-31T08:23:34.814Z,18.60
2023-08-31T08:26:02.084Z,18.10
2023-08-31T08:28:29.593Z,18.40
2023-08-31T08:30:57.387Z,18.50
2023-08-31T08:33:24.866Z,18.40
2023-08-31T08:35:52.082Z,18.70
2023-08-31T08:38:23.566Z,18.40
2023-08-31T08:40:50.870Z,18.70
2023-08-31T08:43:27.708Z,18.70
2023-08-31T08:45:56.391Z,18.70
2023-08-31T08:51:05.666Z,19.10
2023-08-31T08:53:33.150Z,19.30
2023-08-31T08:56:00.484Z,19.40
2023-08-31T08:58:27.835Z,19.40
2023-08-31T09:00:57.969Z,19.30
2023-08-31T09:03:28.368Z,19.50
2023-08-31T09:05:55.787Z,19.50
2023-08-31T09:08:30.497Z,19.00
2023-08-31T09:11:03.841Z,19.20
2023-08-31T09:13:55.041Z,19.20
2023-08-31T09:16:31.492Z,19.10
2023-08-31T09:19:00.040Z,19.10
2023-08-31T09:21:42.457Z,19.00
2023-08-31T09:24:13.717Z,19.20
2023-08-31T09:26:50.701Z,19.20
2023-08-31T09:29:19.736Z,19.20
2023-08-31T09:31:49.734Z,19.40
2023-08-31T09:34:34.289Z,19.40
2023-08-31T09:37:10.814Z,19.40
2023-08-31T09:39:41.311Z,19.40
2023-08-31T09:42:08.502Z,19.20
2023-08-31T09:44:41.552Z,19.30
2023-08-31T09:47:10.434Z,19.10
2023-08-31T09:49:40.373Z,18.80
2023-08-31T09:52:10.605Z,19.10
2023-08-31T09:54:38.892Z,19.00
2023-08-31T09:57:06.893Z,19.30
2023-08-31T09:59:38.827Z,19.30
2023-08-31T10:02:07.862Z,19.70
2023-08-31T10:04:38.606Z,19.80
2023-08-31T10:07:07.126Z,20.10
2023-08-31T10:09:34.647Z,20.20
2023-08-31T10:12:04.860Z,20.40
2023-08-31T10:14:32.797Z,20.70
2023-08-31T10:17:05.255Z,21.00
2023-08-31T10:19:34.863Z,21.10
2023-08-31T10:22:03.434Z,21.10
2023-08-31T10:25:05.162Z,21.10
2023-08-31T10:27:52.386Z,21.10
2023-08-31T10:30:29.870Z,21.00
2023-08-31T10:33:09.246Z,21.10
2023-08-31T10:35:50.462Z,21.10
2023-08-31T10:38:27.401Z,21.10
2023-08-31T10:41:18.042Z,21.10
2023-08-31T10:43:55.597Z,21.20
2023-08-31T10:46:35.121Z,21.30
2023-08-31T10:49:04.812Z,21.40
2023-08-31T10:51:33.762Z,21.50
2023-08-31T10:54:27.271Z,21.50
2023-08-31T10:57:04.560Z,21.50
2023-08-31T10:59:57.409Z,21.60
2023-08-31T11:02:44.008Z,21.70
2023-08-31T11:05:13.609Z,21.90
2023-08-31T11:07:46.065Z,22.10
2023-08-31T11:10:19.149Z,22.20
2023-08-31T11:12:51.289Z,22.30
2023-08-31T11:15:20.862Z,22.40
2023-08-31T11:17:53.330Z,22.40
2023-08-31T11:20:22.687Z,22.50
2023-08-31T11:22:57.725Z,22.50
2023-08-31T11:25:27.053Z,22.60
2023-08-31T11:27:59.491Z,22.70
2023-08-31T11:30:33.836Z,22.60
2023-08-31T11:33:06.812Z,22.70
2023-08-31T11:35:39.546Z,22.70
2023-08-31T11:38:07.608Z,22.80
2023-08-31T11:40:35.507Z,22.90
2023-08-31T11:43:09.344Z,22.90
2023-08-31T11:45:38.096Z,22.80
2023-08-31T11:48:06.357Z,22.70
2023-08-31T11:50:33.740Z,22.80
2023-08-31T11:53:01.130Z,22.90
2023-08-31T11:55:31.008Z,23.00
2023-08-31T11:57:58.150Z,23.10
2023-08-31T12:00:27.997Z,23.20
2023-08-31T12:03:02.393Z,23.10
2023-08-31T12:05:30.657Z,23.00
2023-08-31T12:07:58.178Z,22.90
2023-08-31T12:10:26.390Z,22.70
2023-08-31T12:12:54.585Z,22.60
2023-08-31T12:15:24.668Z,22.50
2023-08-31T12:17:56.195Z,22.50
2023-08-31T12:20:30.599Z,22.30
2023-08-31T12:23:00.702Z,22.20
2023-08-31T12:25:28.733Z,22.00
2023-08-31T12:27:58.453Z,21.90
2023-08-31T12:30:28.342Z,21.90
2023-08-31T12:32:55.861Z,21.90
2023-08-31T12:35:23.251Z,22.00
2023-08-31T12:37:50.361Z,22.00
2023-08-31T12:40:20.639Z,22.00
2023-08-31T12:42:47.705Z,22.00
2023-08-31T12:45:15.030Z,22.10
2023-08-31T12:47:42.230Z,22.20
2023-08-31T12:50:09.873Z,22.20
2023-08-31T12:52:37.140Z,22.30
2023-08-31T12:55:06.030Z,22.40
2023-08-31T12:57:34.856Z,22.50
2023-08-31T13:00:10.593Z,22.50
2023-08-31T13:02:40.937Z,22.60
2023-08-31T13:05:09.731Z,22.70
2023-08-31T13:07:40.371Z,22.90
2023-08-31T13:10:08.055Z,22.90
2023-08-31T13:12:35.621Z,22.90
2023-08-31T13:15:03.594Z,22.90
2023-08-31T13:17:30.827Z,22.70
2023-08-31T13:20:01.026Z,22.80
2023-08-31T13:22:30.248Z,22.80
2023-08-31T13:24:57.916Z,22.70
2023-08-31T13:27:27.311Z,22.70
2023-08-31T13:29:54.888Z,22.70
2023-08-31T13:32:25.409Z,22.70
2023-08-31T13:34:56.063Z,22.60
2023-08-31T13:37:23.168Z,22.50
2023-08-31T13:39:53.275Z,22.50
2023-08-31T13:42:27.575Z,22.50
2023-08-31T13:44:54.660Z,22.40
2023-08-31T13:47:29.336Z,22.20
2023-08-31T13:49:56.555Z,22.20
2023-08-31T13:52:23.714Z,22.10
2023-08-31T13:54:50.781Z,22.20
2023-08-31T13:57:19.175Z,22.20
2023-08-31T13:59:48.578Z,22.20
2023-08-31T14:02:16.343Z,22.30
2023-08-31T14:04:44.388Z,22.40
2023-08-31T14:07:11.919Z,22.50
2023-08-31T14:09:39.345Z,22.50
2023-08-31T14:12:18.930Z,22.40
2023-08-31T14:14:47.606Z,22.30
2023-08-31T14:17:15.093Z,22.20
2023-08-31T14:19:44.740Z,22.00
2023-08-31T14:22:12.055Z,22.10
2023-08-31T14:24:40.552Z,22.10
2023-08-31T14:27:07.935Z,22.10
2023-08-31T14:29:38.508Z,22.10
2023-08-31T14:32:08.637Z,22.10
2023-08-31T14:34:39.797Z,22.10
2023-08-31T14:37:11.643Z,22.10
2023-08-31T14:39:44.941Z,22.10
2023-08-31T14:42:12.875Z,22.20
2023-08-31T14:44:40.809Z,22.20
2023-08-31T14:47:08.462Z,22.30
2023-08-31T14:52:38.833Z,22.40
2023-08-31T14:55:09.016Z,22.40
2023-08-31T14:57:43.291Z,22.40
2023-08-31T15:00:16.317Z,22.40
2023-08-31T15:02:43.638Z,22.40
2023-08-31T15:05:12.873Z,22.40
2023-08-31T15:07:42.613Z,22.40
2023-08-31T15:10:11.193Z,22.30
2023-08-31T15:12:43.826Z,22.20
2023-08-31T15:15:14.537Z,22.00
2023-08-31T15:17:41.750Z,21.90
2023-08-31T15:20:11.547Z,21.80
2023-08-31T15:22:38.862Z,21.60
2023-08-31T15:25:06.989Z,21.50
2023-08-31T15:27:34.932Z,21.40
2023-08-31T15:30:02.495Z,21.30
2023-08-31T15:32:29.884Z,21.20
2023-08-31T15:34:57.967Z,21.20
2023-08-31T15:37:26.294Z,21.10
2023-08-31T15:40:01.408Z,21.20
2023-08-31T15:42:29.917Z,21.20
2023-08-31T15:44:57.281Z,21.30
2023-08-31T15:47:25.812Z,21.40
2023-08-31T15:49:53.972Z,21.40
2023-08-31T15:52:21.130Z,21.60
2023-08-31T15:54:48.772Z,21.70
2023-08-31T15:57:21.493Z,21.80
2023-08-31T15:59:49.025Z,21.90
2023-08-31T16:02:17.304Z,22.00
2023-08-31T16:04:45.450Z,21.90
2023-08-31T16:07:14.854Z,22.00
2023-08-31T16:09:48.677Z,22.00
2023-08-31T16:12:15.736Z,22.00
2023-08-31T16:14:43.039Z,22.10
2023-08-31T16:17:11.409Z,22.20
2023-08-31T16:19:38.410Z,22.20
2023-08-31T16:22:06.824Z,22.20
2023-08-31T16:24:39.745Z,22.10
2023-08-31T16:27:09.168Z,22.00
2023-08-31T16:29:52.545Z,21.90
2023-08-31T16:32:21.039Z,21.90
2023-08-31T16:34:55.642Z,21.90
2023-08-31T16:37:23.318Z,22.00
2023-08-31T16:39:59.676Z,22.00
2023-08-31T16:42:30.193Z,22.00
2023-08-31T16:45:05.117Z,21.80
2023-08-31T16:47:34.605Z,21.60
2023-08-31T16:50:01.742Z,21.60
2023-08-31T16:52:28.764Z,21.60
2023-08-31T16:54:59.703Z,21.60
2023-08-31T16:57:26.925Z,21.50
2023-08-31T16:59:54.537Z,21.40
2023-08-31T17:02:28.129Z,21.30
2023-08-31T17:04:58.158Z,21.20
2023-08-31T17:07:27.622Z,21.10
2023-08-31T17:09:56.008Z,21.10
2023-08-31T17:12:23.661Z,21.10
2023-08-31T17:14:55.092Z,21.00
2023-08-31T17:17:29.320Z,21.00
2023-08-31T17:19:56.413Z,21.00
2023-08-31T17:22:26.488Z,21.00
2023-08-31T17:24:53.947Z,21.00
2023-08-31T17:27:26.710Z,21.00
2023-08-31T17:29:56.876Z,20.90
2023-08-31T17:32:26.961Z,20.90
2023-08-31T17:34:53.974Z,20.90
2023-08-31T17:37:29.174Z,20.80
2023-08-31T17:39:56.499Z,20.80
2023-08-31T17:42:23.581Z,20.80
2023-08-31T17:44:52.827Z,20.80
2023-08-31T17:47:20.543Z,20.70
2023-08-31T17:49:47.586Z,20.70
2023-08-31T17:52:14.720Z,20.60
2023-08-31T17:54:44.514Z,20.20
2023-08-31T17:57:12.004Z,20.30
2023-08-31T17:59:39.367Z,20.20
2023-08-31T18:02:07.092Z,20.00
2023-08-31T18:04:34.270Z,19.90
2023-08-31T18:07:02.235Z,19.70
2023-08-31T18:09:31.802Z,19.70
2023-08-31T18:11:58.827Z,19.60
2023-08-31T18:14:26.062Z,19.70
2023-08-31T18:16:53.186Z,19.70
2023-08-31T18:19:20.308Z,19.70
2023-08-31T18:21:47.369Z,19.20
2023-08-31T18:24:14.737Z,19.30
2023-08-31T18:26:42.550Z,19.20
2023-08-31T18:29:09.673Z,19.50
2023-08-31T18:31:42.241Z,19.20
2023-08-31T18:34:09.856Z,19.20
2023-08-31T18:36:37.465Z,19.30
2023-08-31T18:39:08.577Z,19.30
2023-08-31T18:41:37.444Z,19.60
2023-08-31T18:44:04.877Z,19.10
2023-08-31T18:46:32.199Z,18.60
2023-08-31T18:48:59.553Z,18.60
2023-08-31T18:51:27.248Z,18.50
2023-08-31T18:53:54.351Z,18.60
2023-08-31T18:56:21.515Z,18.50
2023-08-31T18:58:49.918Z,18.40
2023-08-31T19:01:17.060Z,18.10
2023-08-31T19:03:44.173Z,18.30
2023-08-31T19:06:11.828Z,18.00
2023-08-31T19:08:38.942Z,17.70
2023-08-31T19:11:10.254Z,17.90
2023-08-31T19:13:37.597Z,17.60
2023-08-31T19:16:05.269Z,17.50
2023-08-31T19:18:32.319Z,17.50
2023-08-31T19:21:17.916Z,17.30
2023-08-31T19:23:49.407Z,17.30
2023-08-31T19:26:16.648Z,17.60
2023-08-31T19:28:43.702Z,17.60
2023-08-31T19:31:11.195Z,17.50
2023-08-31T19:33:38.714Z,17.50
2023-08-31T19:36:06.066Z,17.50
2023-08-31T19:38:33.149Z,17.40
2023-08-31T19:41:00.366Z,17.40
2023-08-31T19:43:27.621Z,17.50
2023-08-31T19:45:55.071Z,17.30
2023-08-31T19:48:25.187Z,17.10
2023-08-31T19:50:53.827Z,17.50
2023-08-31T19:53:20.917Z,17.40
2023-08-31T19:55:50.259Z,17.00
2023-08-31T19:58:17.557Z,17.20
2023-08-31T20:00:45.129Z,17.00
2023-08-31T20:03:12.654Z,17.10
2023-08-31T20:05:40.101Z,17.00
2023-08-31T20:08:08.124Z,17.00
2023-08-31T20:10:35.408Z,16.90
2023-08-31T20:13:02.892Z,16.90
2023-08-31T20:15:30.267Z,17.00
2023-08-31T20:17:57.412Z,17.10
2023-08-31T20:20:24.771Z,17.00
2023-08-31T20:22:51.933Z,16.90
2023-08-31T20:25:20.301Z,17.20
2023-08-31T20:27:48.193Z,17.20
2023-08-31T20:30:16.054Z,17.20
2023-08-31T20:32:43.155Z,17.20
2023-08-31T20:35:13.799Z,17.00
2023-08-31T20:37:41.346Z,17.10
2023-08-31T20:40:11.960Z,17.20
2023-08-31T20:42:40.360Z,17.00
2023-08-31T20:45:11.995Z,17.00
2023-08-31T20:47:39.175Z,17.10
2023-08-31T20:50:16.328Z,17.50
2023-08-31T20:52:46.962Z,17.10
2023-08-31T20:55:18.892Z,17.40
2023-08-31T20:57:51.443Z,17.10
2023-08-31T21:00:20.860Z,17.30
2023-08-31T21:02:48.325Z,17.30
2023-08-31T21:05:15.512Z,17.20
2023-08-31T21:07:42.820Z,17.40
2023-08-31T21:10:10.067Z,17.50
2023-08-31T21:12:37.375Z,17.20
2023-08-31T21:15:08.521Z,17.40
2023-08-31T21:17:35.966Z,17.30
2023-08-31T21:20:05.948Z,17.30
2023-08-31T21:22:33.025Z,17.00
2023-08-31T21:25:20.396Z,17.20
2023-08-31T21:27:58.972Z,17.30
2023-08-31T21:30:26.077Z,17.30
2023-08-31T21:32:53.269Z,16.90
2023-08-31T21:35:20.426Z,17.40
2023-08-31T21:37:47.886Z,17.30
2023-08-31T21:40:15.331Z,17.30
2023-08-31T21:42:43.050Z,17.20
2023-08-31T21:45:14.876Z,17.10
2023-08-31T21:47:46.331Z,17.50
2023-08-31T21:50:14.277Z,17.10
2023-08-31T21:52:52.079Z,17.40
2023-08-31T21:55:19.278Z,17.40
2023-08-31T21:57:51.438Z,17.10
2023-08-31T22:00:19.960Z,17.10
2023-08-31T22:02:55.205Z,17.10
2023-08-31T22:05:24.992Z,17.20
2023-08-31T22:07:53.528Z,17.10
2023-08-31T22:10:21.258Z,17.10
2023-08-31T22:12:48.585Z,17.10
2023-08-31T22:15:18.012Z,17.30
2023-08-31T22:17:49.701Z,17.00
2023-08-31T22:20:17.798Z,17.10
2023-08-31T22:22:49.554Z,16.80
2023-08-31T22:25:19.445Z,17.00
2023-08-31T22:27:55.675Z,16.90
2023-08-31T22:30:25.209Z,17.00
2023-08-31T22:32:52.548Z,17.20
2023-08-31T22:35:26.399Z,17.10
2023-08-31T22:37:56.721Z,16.90
2023-08-31T22:40:28.144Z,17.00
2023-08-31T22:43:00.292Z,16.90
2023-08-31T22:45:27.710Z,16.90
2023-08-31T22:47:54.967Z,16.70
2023-08-31T22:50:35.754Z,16.90
2023-08-31T22:53:16.211Z,16.90
2023-08-31T22:55:55.098Z,16.70
2023-08-31T22:58:22.642Z,16.90
2023-08-31T23:00:52.295Z,17.00
2023-08-31T23:03:25.021Z,16.90
2023-08-31T23:05:52.298Z,16.70
2023-08-31T23:08:19.283Z,16.90
2023-08-31T23:10:59.445Z,17.00
2023-08-31T23:13:39.569Z,16.90
2023-08-31T23:16:08.879Z,17.10
2023-08-31T23:18:36.308Z,16.90
2023-08-31T23:21:11.788Z,16.70
2023-08-31T23:23:39.304Z,17.10
2023-08-31T23:28:50.068Z,17.00
2023-08-31T23:31:25.829Z,17.20
2023-08-31T23:33:53.015Z,17.00
2023-08-31T23:36:20.194Z,17.10
2023-08-31T23:38:47.338Z,17.10
2023-08-31T23:41:18.863Z,17.20
2023-08-31T23:43:47.476Z,17.30
2023-08-31T23:46:26.740Z,17.20
2023-08-31T23:51:36.311Z,17.10
2023-08-31T23:54:06.048Z,17.20
2023-08-31T23:56:38.756Z,17.10
